Time;durP1;ratioP1;P1;durP2;ratioP2;P2;SDS_P1;SDS_P2;PMS_P1;PMS_P2;Temp;Humidity;BMP_temperature;BMP_pressure;BME280_temperature;BME280_humidity;BME280_pressure;Samples;Min_cycle;Max_cycle;Signal;HPM_P1;HPM_P2
2023/07/27 00:01:05;;;;;;;3.83;2.53;;;17.40;99.90;;;;;;4980251;28;20247;-69
2023/07/27 00:03:31;;;;;;;2.87;2.67;;;17.40;99.90;;;;;;4981816;28;20760;-69
2023/07/27 00:05:57;;;;;;;2.87;2.60;;;17.30;99.90;;;;;;4963090;28;20283;-68
2023/07/27 00:08:22;;;;;;;2.50;2.30;;;17.30;99.90;;;;;;4967379;28;20249;-69
2023/07/27 00:10:48;;;;;;;2.87;2.50;;;17.30;99.90;;;;;;4981954;28;20347;-68
2023/07/27 00:13:13;;;;;;;2.80;2.57;;;17.30;99.90;;;;;;4965280;28;20328;-68
2023/07/27 00:15:39;;;;;;;2.53;2.33;;;17.30;99.90;;;;;;4963180;28;21017;-68
2023/07/27 00:18:05;;;;;;;3.00;2.37;;;17.30;99.90;;;;;;4965434;28;20252;-69
2023/07/27 00:20:30;;;;;;;3.37;2.67;;;17.30;99.90;;;;;;4968252;28;20757;-69
2023/07/27 00:22:56;;;;;;;2.70;2.50;;;17.30;99.90;;;;;;4965897;28;20217;-69
2023/07/27 00:25:22;;;;;;;2.63;2.43;;;17.30;99.90;;;;;;4965209;28;20861;-68
2023/07/27 00:27:47;;;;;;;2.97;2.67;;;17.30;99.90;;;;;;4980878;28;20217;-68
2023/07/27 00:30:13;;;;;;;6.17;2.87;;;17.30;99.90;;;;;;4963982;28;20229;-69
2023/07/27 00:32:39;;;;;;;2.60;2.40;;;17.30;99.90;;;;;;4963993;28;20217;-69
2023/07/27 00:35:06;;;;;;;4.03;2.33;;;17.30;99.90;;;;;;4962960;28;20240;-69
2023/07/27 00:37:31;;;;;;;2.50;2.30;;;17.30;99.90;;;;;;4966417;28;20278;-69
2023/07/27 00:39:57;;;;;;;2.70;2.40;;;17.30;99.90;;;;;;4963969;28;20448;-67
2023/07/27 00:42:22;;;;;;;2.80;2.40;;;17.30;99.90;;;;;;4962998;28;20922;-68
2023/07/27 00:44:48;;;;;;;8.30;2.67;;;17.20;99.90;;;;;;4979440;28;20845;-69
2023/07/27 00:47:14;;;;;;;3.10;2.60;;;17.20;99.90;;;;;;4982449;28;20921;-68
2023/07/27 00:49:39;;;;;;;3.53;2.33;;;17.20;99.90;;;;;;4963377;28;21050;-69
2023/07/27 00:52:07;;;;;;;2.77;2.50;;;17.20;99.90;;;;;;4962704;28;20221;-69
2023/07/27 00:54:34;;;;;;;2.60;2.40;;;17.20;99.90;;;;;;4966149;28;20220;-68
2023/07/27 00:57:00;;;;;;;3.03;2.57;;;17.20;99.90;;;;;;4965109;28;21159;-69
2023/07/27 00:59:27;;;;;;;2.43;2.23;;;17.20;99.90;;;;;;4962363;28;20468;-69
2023/07/27 01:01:54;;;;;;;2.37;2.17;;;17.20;99.90;;;;;;4980336;28;20475;-68
2023/07/27 01:04:20;;;;;;;2.60;2.40;;;17.20;99.90;;;;;;4964469;28;20985;-70
2023/07/27 01:06:46;;;;;;;2.77;2.07;;;17.20;99.90;;;;;;4962221;28;20455;-69
2023/07/27 01:09:12;;;;;;;4.03;2.57;;;17.20;99.90;;;;;;4980380;28;20479;-70
2023/07/27 01:12:02;;;;;;;3.57;2.53;;;17.20;99.90;;;;;;4950120;28;21111;-69
2023/07/27 01:14:57;;;;;;;2.83;2.47;;;17.10;99.90;;;;;;4949558;28;20592;-69
2023/07/27 01:17:48;;;;;;;2.93;2.00;;;17.10;99.90;;;;;;4934096;28;20457;-69
2023/07/27 01:20:25;;;;;;;2.37;2.17;;;17.10;99.90;;;;;;4962118;28;20501;-69
2023/07/27 01:23:17;;;;;;;3.33;3.03;;;17.20;99.90;;;;;;4964544;28;20847;-69
2023/07/27 01:26:20;;;;;;;3.00;2.80;;;17.10;99.90;;;;;;4983208;28;20518;-70
2023/07/27 01:29:16;;;;;;;3.10;2.60;;;17.10;99.90;;;;;;4982478;28;20471;-70
2023/07/27 01:31:44;;;;;;;3.53;3.13;;;17.10;99.90;;;;;;4956161;28;20484;-69
2023/07/27 01:34:29;;;;;;;2.50;2.30;;;17.10;99.90;;;;;;4982774;28;21202;-69
2023/07/27 01:37:01;;;;;;;2.90;2.70;;;17.10;99.90;;;;;;4968632;28;20498;-69
2023/07/27 01:39:30;;;;;;;3.00;2.70;;;17.00;99.90;;;;;;4965783;28;21063;-68
2023/07/27 01:41:57;;;;;;;2.73;2.53;;;17.10;99.90;;;;;;4963500;28;20464;-68
2023/07/27 01:44:25;;;;;;;3.23;2.50;;;17.10;99.90;;;;;;4962571;28;20579;-69
2023/07/27 01:46:54;;;;;;;4.30;2.63;;;17.10;99.90;;;;;;4964001;28;20478;-69
2023/07/27 01:49:22;;;;;;;4.37;3.20;;;17.00;99.90;;;;;;4965695;28;20472;-68
2023/07/27 01:51:49;;;;;;;2.90;2.70;;;17.00;99.90;;;;;;4963761;28;20553;-70
2023/07/27 01:54:15;;;;;;;2.70;2.50;;;17.00;99.90;;;;;;4967470;28;20460;-69
2023/07/27 01:56:42;;;;;;;3.07;2.77;;;17.00;99.90;;;;;;4963789;28;20467;-68
2023/07/27 01:59:09;;;;;;;3.90;2.50;;;17.00;99.90;;;;;;4998106;28;20465;-69
2023/07/27 02:01:37;;;;;;;2.60;2.40;;;17.00;99.90;;;;;;4966600;28;20470;-69
2023/07/27 02:04:04;;;;;;;3.13;2.93;;;17.00;99.90;;;;;;4980190;28;20520;-68
2023/07/27 02:06:30;;;;;;;3.07;2.60;;;17.00;99.90;;;;;;4963268;28;20460;-69
2023/07/27 02:08:56;;;;;;;3.13;2.70;;;17.00;99.90;;;;;;4966531;28;20470;-69
2023/07/27 02:11:24;;;;;;;6.93;2.80;;;16.90;99.90;;;;;;4968837;28;20236;-69
2023/07/27 02:14:06;;;;;;;2.90;2.60;;;16.90;99.90;;;;;;4967859;28;21082;-68
2023/07/27 02:16:43;;;;;;;5.27;2.90;;;16.90;99.90;;;;;;4969321;28;20462;-69
2023/07/27 02:19:12;;;;;;;2.53;2.33;;;16.90;99.90;;;;;;4970840;28;20498;-69
2023/07/27 02:21:39;;;;;;;3.60;2.83;;;16.90;99.90;;;;;;4970580;28;20886;-69
2023/07/27 02:24:05;;;;;;;3.40;2.50;;;16.90;99.90;;;;;;4967304;28;20487;-69
2023/07/27 02:26:31;;;;;;;2.87;2.67;;;16.90;99.90;;;;;;4985685;28;20476;-68
2023/07/27 02:28:57;;;;;;;5.17;2.80;;;16.90;99.90;;;;;;4968476;28;20549;-69
2023/07/27 02:31:25;;;;;;;3.03;2.83;;;16.90;99.90;;;;;;4968509;28;20472;-68
2023/07/27 02:33:51;;;;;;;2.53;2.33;;;16.90;99.90;;;;;;4968751;28;21060;-68
2023/07/27 02:36:17;;;;;;;3.57;2.63;;;16.80;99.90;;;;;;4955682;28;20227;-69
2023/07/27 02:38:43;;;;;;;2.53;2.33;;;16.80;99.90;;;;;;4968986;28;20602;-68
2023/07/27 02:41:12;;;;;;;4.03;3.30;;;16.80;99.90;;;;;;4963396;28;20250;-69
2023/07/27 02:43:39;;;;;;;5.33;3.10;;;16.80;99.90;;;;;;4969565;28;20950;-68
2023/07/27 02:46:08;;;;;;;4.30;2.83;;;16.80;99.90;;;;;;4969796;28;21201;-69
2023/07/27 02:48:34;;;;;;;4.03;2.97;;;16.80;99.90;;;;;;4968218;28;20471;-68
2023/07/27 02:51:00;;;;;;;3.40;2.90;;;16.80;99.90;;;;;;4967750;28;20559;-67
2023/07/27 02:53:25;;;;;;;2.80;2.57;;;16.80;99.90;;;;;;4954119;28;21222;-68
2023/07/27 02:56:01;;;;;;;4.00;3.00;;;16.80;99.90;;;;;;4966151;28;20217;-68
2023/07/27 02:58:31;;;;;;;2.83;2.63;;;16.80;99.90;;;;;;4984420;28;20566;-69
2023/07/27 03:00:59;;;;;;;4.07;3.07;;;16.80;99.90;;;;;;4969017;28;20662;-68
2023/07/27 03:03:25;;;;;;;2.90;2.30;;;16.80;99.90;;;;;;4969286;28;20260;-69
2023/07/27 03:06:02;;;;;;;3.87;2.70;;;16.80;99.90;;;;;;4967595;28;21178;-68
2023/07/27 03:08:29;;;;;;;2.93;2.53;;;16.80;99.90;;;;;;4969451;28;20525;-69
2023/07/27 03:11:04;;;;;;;3.50;2.50;;;16.80;99.90;;;;;;4967813;28;20507;-69
2023/07/27 03:13:30;;;;;;;3.07;2.77;;;16.80;99.90;;;;;;4968520;28;20507;-68
2023/07/27 03:15:56;;;;;;;4.43;2.57;;;16.80;99.90;;;;;;4967958;28;20504;-69
2023/07/27 03:18:22;;;;;;;3.10;2.80;;;16.80;99.90;;;;;;4970045;28;20464;-68
2023/07/27 03:20:48;;;;;;;3.27;2.97;;;16.80;99.90;;;;;;4967957;28;20332;-68
2023/07/27 03:23:14;;;;;;;4.83;2.93;;;16.80;99.90;;;;;;4966752;28;20229;-68
2023/07/27 03:25:40;;;;;;;2.60;2.40;;;16.80;99.90;;;;;;4970155;28;20914;-67
2023/07/27 03:28:07;;;;;;;3.10;2.80;;;16.80;99.90;;;;;;4968120;28;20534;-69
2023/07/27 03:30:38;;;;;;;4.37;2.70;;;16.80;99.90;;;;;;4967614;28;20237;-70
2023/07/27 03:33:05;;;;;;;3.03;2.80;;;16.80;99.90;;;;;;4967042;28;20470;-68
2023/07/27 03:35:31;;;;;;;3.00;2.63;;;16.80;99.90;;;;;;4967425;28;20475;-69
2023/07/27 03:37:57;;;;;;;3.70;3.30;;;16.70;99.90;;;;;;4967203;28;20495;-69
2023/07/27 03:40:22;;;;;;;3.27;2.97;;;16.70;99.90;;;;;;4965923;28;20555;-68
2023/07/27 03:42:48;;;;;;;3.63;3.23;;;16.70;99.90;;;;;;4968145;28;20221;-68
2023/07/27 03:45:15;;;;;;;3.13;2.87;;;16.70;99.90;;;;;;4968975;28;20928;-69
2023/07/27 03:47:45;;;;;;;3.80;2.90;;;16.70;99.90;;;;;;4968463;28;20468;-67
2023/07/27 03:50:11;;;;;;;3.67;3.37;;;16.70;99.90;;;;;;4949910;28;20495;-68
2023/07/27 03:52:37;;;;;;;3.10;2.80;;;16.60;99.90;;;;;;4974888;28;20535;-68
2023/07/27 03:55:07;;;;;;;3.90;2.73;;;16.60;99.90;;;;;;5003435;28;20479;-69
2023/07/27 03:57:33;;;;;;;3.97;2.63;;;16.60;99.90;;;;;;4996646;28;21072;-69
2023/07/27 04:00:00;;;;;;;2.60;2.40;;;16.60;99.90;;;;;;5001106;28;20294;-68
2023/07/27 04:02:27;;;;;;;4.07;2.97;;;16.60;99.90;;;;;;5017329;28;20474;-70
2023/07/27 04:04:53;;;;;;;5.10;3.03;;;16.60;99.90;;;;;;4989296;28;20549;-67
2023/07/27 04:07:19;;;;;;;3.20;2.70;;;16.70;99.90;;;;;;5002357;28;20468;-69
2023/07/27 04:09:45;;;;;;;2.63;2.43;;;16.60;99.90;;;;;;5017462;28;20468;-69
2023/07/27 04:12:11;;;;;;;3.07;2.70;;;16.60;99.90;;;;;;5000155;28;20863;-68
2023/07/27 04:14:37;;;;;;;4.20;3.00;;;16.60;99.90;;;;;;5002629;28;20256;-68
2023/07/27 04:17:03;;;;;;;5.20;3.30;;;16.60;99.90;;;;;;4999508;28;20218;-68
2023/07/27 04:19:29;;;;;;;4.47;4.10;;;16.70;99.90;;;;;;4990300;28;20459;-68
2023/07/27 04:21:55;;;;;;;3.20;2.90;;;16.70;99.90;;;;;;5012039;28;20469;-68
2023/07/27 04:24:20;;;;;;;6.33;2.90;;;16.70;99.90;;;;;;5000873;28;20229;-68
2023/07/27 04:26:46;;;;;;;2.97;2.60;;;16.70;99.90;;;;;;5000038;28;20228;-69
2023/07/27 04:29:12;;;;;;;3.07;2.87;;;16.70;99.90;;;;;;4998465;28;20218;-67
2023/07/27 04:31:37;;;;;;;4.07;3.07;;;16.70;99.90;;;;;;4993600;28;20651;-68
2023/07/27 04:34:03;;;;;;;3.93;3.63;;;16.60;99.90;;;;;;4999876;28;20263;-69
2023/07/27 04:36:29;;;;;;;3.37;2.70;;;16.70;99.90;;;;;;5000511;28;20229;-68
2023/07/27 04:38:54;;;;;;;3.90;3.47;;;16.60;99.90;;;;;;4998432;28;20814;-68
2023/07/27 04:41:20;;;;;;;3.80;3.30;;;16.70;99.90;;;;;;5001013;28;20221;-68
2023/07/27 04:43:45;;;;;;;3.60;3.30;;;16.60;99.90;;;;;;4979474;28;20229;-68
2023/07/27 04:46:11;;;;;;;3.80;3.40;;;16.70;99.90;;;;;;4982684;28;20237;-68
2023/07/27 04:48:37;;;;;;;3.23;2.93;;;16.70;99.90;;;;;;4968723;28;20221;-69
2023/07/27 04:51:02;;;;;;;5.47;3.60;;;16.70;99.90;;;;;;4966498;28;20347;-69
2023/07/27 04:53:28;;;;;;;2.87;2.53;;;16.60;99.90;;;;;;4965268;28;20307;-67
2023/07/27 04:55:54;;;;;;;3.03;2.80;;;16.70;99.90;;;;;;4965368;28;20315;-68
2023/07/27 04:58:19;;;;;;;3.50;3.20;;;16.70;99.90;;;;;;4982931;28;20232;-67
2023/07/27 05:00:54;;;;;;;3.43;3.10;;;16.70;99.90;;;;;;4964973;28;20225;-68
2023/07/27 05:03:20;;;;;;;3.23;2.93;;;16.70;99.90;;;;;;4965493;28;20351;-69
2023/07/27 05:05:46;;;;;;;3.73;3.30;;;16.70;99.90;;;;;;4967526;28;20468;-68
2023/07/27 05:08:11;;;;;;;3.90;3.43;;;16.70;99.90;;;;;;4965343;28;20331;-68
2023/07/27 05:10:41;;;;;;;4.80;3.13;;;16.70;99.90;;;;;;4981660;28;20839;-67
2023/07/27 05:13:07;;;;;;;3.17;2.97;;;16.70;99.90;;;;;;4981665;28;20881;-68
2023/07/27 05:15:34;;;;;;;3.50;3.20;;;16.70;99.90;;;;;;4967859;28;20464;-68
2023/07/27 05:17:59;;;;;;;3.53;3.23;;;16.70;99.90;;;;;;4982278;28;21096;-67
2023/07/27 05:20:25;;;;;;;4.50;3.40;;;16.70;99.90;;;;;;4967536;28;20476;-69
2023/07/27 05:22:51;;;;;;;3.30;3.00;;;16.70;99.90;;;;;;4967420;28;20236;-69
2023/07/27 05:25:16;;;;;;;3.20;2.90;;;16.80;99.90;;;;;;4983636;28;20224;-67
2023/07/27 05:27:42;;;;;;;4.73;3.33;;;16.70;99.90;;;;;;4981626;28;20248;-69
2023/07/27 05:30:08;;;;;;;3.50;3.20;;;16.80;99.90;;;;;;4970568;28;20236;-69
2023/07/27 05:32:34;;;;;;;3.40;3.10;;;16.80;99.90;;;;;;4968834;28;20228;-68
2023/07/27 05:34:59;;;;;;;3.37;3.03;;;16.80;99.90;;;;;;4966070;28;21154;-68
2023/07/27 05:37:25;;;;;;;3.00;2.70;;;16.80;99.90;;;;;;4980846;28;20227;-68
2023/07/27 05:39:51;;;;;;;4.93;3.07;;;16.80;99.90;;;;;;4967169;28;20939;-69
2023/07/27 05:42:16;;;;;;;4.17;3.13;;;16.80;99.90;;;;;;4967220;28;20826;-69
2023/07/27 05:44:42;;;;;;;3.27;2.90;;;16.80;99.90;;;;;;4966982;28;20299;-70
2023/07/27 05:47:07;;;;;;;4.30;3.37;;;16.80;99.90;;;;;;4985165;28;20682;-68
2023/07/27 05:49:33;;;;;;;4.17;3.77;;;16.80;99.90;;;;;;4971602;28;20793;-68
2023/07/27 05:51:59;;;;;;;3.70;3.40;;;16.80;99.90;;;;;;4970295;28;20733;-68
2023/07/27 05:54:25;;;;;;;3.27;3.00;;;16.80;99.90;;;;;;4969514;28;20430;-69
2023/07/27 05:56:51;;;;;;;3.10;2.87;;;16.80;99.90;;;;;;4972155;28;20363;-69
2023/07/27 05:59:16;;;;;;;3.80;3.40;;;16.80;99.90;;;;;;4968537;28;20460;-69
2023/07/27 06:01:42;;;;;;;6.30;3.43;;;16.80;99.90;;;;;;4969902;28;20237;-69
2023/07/27 06:04:08;;;;;;;6.20;3.07;;;16.80;99.90;;;;;;4970279;28;20248;-69
2023/07/27 06:06:34;;;;;;;3.20;2.90;;;16.80;99.90;;;;;;4969860;28;20363;-69
2023/07/27 06:09:00;;;;;;;3.93;3.00;;;16.80;99.90;;;;;;4984150;28;20374;-69
2023/07/27 06:11:26;;;;;;;3.60;3.30;;;16.90;99.90;;;;;;4967185;28;20573;-69
2023/07/27 06:13:51;;;;;;;3.83;3.10;;;16.80;99.90;;;;;;4971614;28;20233;-69
2023/07/27 06:16:17;;;;;;;2.90;2.70;;;16.80;99.90;;;;;;4968639;28;20423;-68
2023/07/27 06:18:42;;;;;;;5.70;3.47;;;16.80;99.90;;;;;;4967880;28;20673;-68
2023/07/27 06:21:08;;;;;;;3.33;2.87;;;16.90;99.90;;;;;;4970430;28;21070;-68
2023/07/27 06:23:34;;;;;;;3.50;2.90;;;16.80;99.90;;;;;;4972487;28;20703;-67
2023/07/27 06:25:59;;;;;;;5.40;2.90;;;16.90;99.90;;;;;;4969323;28;20229;-68
2023/07/27 06:28:25;;;;;;;3.77;3.20;;;16.90;99.90;;;;;;4969954;28;20244;-68
2023/07/27 06:30:51;;;;;;;3.47;3.17;;;16.90;99.90;;;;;;4970475;28;20288;-68
2023/07/27 06:33:16;;;;;;;3.30;3.00;;;16.90;99.90;;;;;;4970189;28;20239;-69
2023/07/27 06:35:42;;;;;;;3.33;3.03;;;16.90;99.90;;;;;;4967907;28;20943;-69
2023/07/27 06:38:08;;;;;;;5.20;3.40;;;16.90;99.90;;;;;;4969327;28;20236;-68
2023/07/27 06:40:34;;;;;;;5.10;3.40;;;16.90;99.90;;;;;;4985749;28;20866;-69
2023/07/27 06:42:59;;;;;;;3.93;3.57;;;16.90;99.90;;;;;;4983522;28;20276;-69
2023/07/27 06:45:25;;;;;;;3.20;2.80;;;16.90;99.90;;;;;;4970262;28;20244;-69
2023/07/27 06:47:51;;;;;;;2.90;2.67;;;17.00;99.90;;;;;;4970478;28;20237;-69
2023/07/27 06:50:16;;;;;;;3.90;3.50;;;17.00;99.90;;;;;;4956600;28;20233;-67
2023/07/27 06:52:42;;;;;;;7.30;3.63;;;17.00;99.90;;;;;;4950374;28;20240;-69
2023/07/27 06:55:08;;;;;;;5.27;3.43;;;17.00;99.90;;;;;;4949763;28;20247;-68
2023/07/27 06:57:34;;;;;;;3.30;3.00;;;17.00;99.90;;;;;;4949803;28;20305;-67
2023/07/27 07:00:00;;;;;;;4.53;3.60;;;17.00;99.90;;;;;;4984014;28;20232;-68
2023/07/27 07:02:26;;;;;;;4.27;3.90;;;17.00;99.90;;;;;;4970918;28;20562;-70
2023/07/27 07:04:52;;;;;;;4.53;3.20;;;17.00;99.90;;;;;;4972014;28;20363;-68
2023/07/27 07:07:18;;;;;;;3.93;3.50;;;17.00;99.90;;;;;;4984521;28;20468;-68
2023/07/27 07:09:44;;;;;;;3.83;3.30;;;17.00;99.90;;;;;;4968961;28;20225;-69
2023/07/27 07:12:09;;;;;;;3.50;3.13;;;17.00;99.90;;;;;;4969233;28;20581;-67
2023/07/27 07:14:35;;;;;;;3.40;3.10;;;17.00;99.90;;;;;;4968857;28;20314;-68
2023/07/27 07:17:01;;;;;;;3.50;3.20;;;17.10;99.90;;;;;;4981604;28;20220;-68
2023/07/27 07:19:27;;;;;;;4.80;2.97;;;17.10;99.90;;;;;;4966097;28;20821;-67
2023/07/27 07:21:53;;;;;;;3.23;2.63;;;17.10;99.90;;;;;;4969272;28;20649;-67
2023/07/27 07:24:19;;;;;;;3.80;2.70;;;17.10;99.90;;;;;;4960622;28;20248;-69
2023/07/27 07:26:45;;;;;;;3.57;2.80;;;17.10;99.90;;;;;;4965300;28;20240;-68
2023/07/27 07:29:11;;;;;;;2.73;2.30;;;17.10;99.90;;;;;;4966553;28;21201;-67
2023/07/27 07:31:37;;;;;;;3.07;2.87;;;17.10;99.90;;;;;;4967341;28;20530;-69
2023/07/27 07:34:03;;;;;;;4.10;3.77;;;17.10;99.90;;;;;;4965418;28;20463;-69
2023/07/27 07:36:29;;;;;;;3.73;3.43;;;17.10;99.90;;;;;;4982184;28;20313;-68
2023/07/27 07:38:55;;;;;;;3.43;3.00;;;17.10;99.90;;;;;;4968349;28;20464;-68
2023/07/27 07:41:20;;;;;;;3.73;3.43;;;17.20;99.90;;;;;;4965927;28;20224;-67
2023/07/27 07:43:46;;;;;;;3.20;2.90;;;17.20;99.90;;;;;;4966791;28;20221;-69
2023/07/27 07:46:12;;;;;;;4.73;3.00;;;17.20;99.90;;;;;;4970354;28;20237;-69
2023/07/27 07:48:39;;;;;;;3.07;2.87;;;17.20;99.90;;;;;;4966263;28;20379;-69
2023/07/27 07:51:14;;;;;;;3.13;2.83;;;17.20;99.90;;;;;;4952642;28;20468;-68
2023/07/27 07:53:41;;;;;;;3.30;3.00;;;17.20;99.90;;;;;;4948813;28;20494;-69
2023/07/27 07:56:15;;;;;;;2.97;2.63;;;17.20;99.90;;;;;;4946497;28;21218;-68
2023/07/27 07:58:41;;;;;;;5.00;3.20;;;17.20;99.90;;;;;;4964193;28;20599;-69
2023/07/27 08:01:07;;;;;;;3.17;2.87;;;17.20;99.90;;;;;;4998136;28;20466;-69
2023/07/27 08:03:33;;;;;;;4.70;3.17;;;17.30;99.90;;;;;;5001451;28;20482;-68
2023/07/27 08:05:59;;;;;;;3.47;3.17;;;17.20;99.90;;;;;;5016459;28;20225;-69
2023/07/27 08:08:25;;;;;;;3.37;3.17;;;17.20;99.90;;;;;;5001002;28;20216;-68
2023/07/27 08:10:51;;;;;;;2.60;2.33;;;17.20;99.90;;;;;;5001231;28;20228;-69
2023/07/27 08:13:17;;;;;;;2.73;2.37;;;17.20;99.90;;;;;;5002079;28;20884;-68
2023/07/27 08:15:52;;;;;;;3.57;3.07;;;17.20;99.90;;;;;;5016684;28;20470;-67
2023/07/27 08:18:18;;;;;;;3.10;2.60;;;17.20;99.90;;;;;;4998788;28;20719;-68
2023/07/27 08:20:43;;;;;;;4.17;2.83;;;17.20;99.90;;;;;;5001209;28;20475;-69
2023/07/27 08:23:09;;;;;;;2.93;2.63;;;17.20;99.90;;;;;;5000434;28;20290;-69
2023/07/27 08:25:39;;;;;;;2.70;2.50;;;17.20;99.90;;;;;;5000753;28;20298;-69
2023/07/27 08:28:05;;;;;;;2.93;2.30;;;17.20;99.90;;;;;;4998189;28;20713;-67
2023/07/27 08:30:32;;;;;;;3.13;2.87;;;17.20;99.90;;;;;;4998007;28;20574;-69
2023/07/27 08:32:58;;;;;;;10.30;3.10;;;17.20;99.90;;;;;;4998983;28;20356;-69
2023/07/27 08:35:24;;;;;;;4.00;2.90;;;17.20;99.90;;;;;;5015260;28;20459;-68
2023/07/27 08:37:49;;;;;;;2.17;2.00;;;17.30;99.90;;;;;;5002011;28;20932;-67
2023/07/27 08:40:15;;;;;;;3.23;2.80;;;17.30;99.90;;;;;;5014691;28;20217;-69
2023/07/27 08:42:43;;;;;;;3.50;2.90;;;17.30;99.90;;;;;;4999786;28;20353;-69
2023/07/27 08:45:13;;;;;;;2.73;2.30;;;17.30;99.90;;;;;;4997994;28;20295;-68
2023/07/27 08:47:39;;;;;;;3.50;2.60;;;17.30;99.90;;;;;;5000703;28;20523;-68
2023/07/27 08:50:06;;;;;;;4.40;2.93;;;17.30;99.90;;;;;;4997074;28;20491;-67
2023/07/27 08:52:32;;;;;;;3.80;2.50;;;17.30;99.90;;;;;;5000046;28;21419;-68
2023/07/27 08:54:58;;;;;;;2.97;2.40;;;17.30;99.90;;;;;;5014775;28;20464;-68
2023/07/27 08:57:24;;;;;;;2.23;2.03;;;17.30;99.90;;;;;;5001215;28;20813;-69
2023/07/27 08:59:51;;;;;;;4.03;2.50;;;17.40;99.90;;;;;;4998821;28;20460;-68
2023/07/27 09:02:16;;;;;;;2.80;1.90;;;17.40;99.90;;;;;;4998952;28;20229;-68
2023/07/27 09:04:42;;;;;;;4.03;2.10;;;17.40;99.90;;;;;;5014118;28;20545;-69
2023/07/27 09:07:08;;;;;;;1.60;1.50;;;17.30;99.90;;;;;;5011392;28;20237;-68
2023/07/27 09:09:34;;;;;;;2.63;2.33;;;17.40;99.90;;;;;;4999304;28;20221;-68
2023/07/27 09:12:03;;;;;;;3.20;2.40;;;17.40;99.90;;;;;;4999597;28;20328;-69
2023/07/27 09:14:37;;;;;;;2.60;2.23;;;17.40;99.90;;;;;;4999663;28;20481;-68
2023/07/27 09:17:04;;;;;;;2.13;1.93;;;17.40;99.90;;;;;;4998518;28;21165;-68
2023/07/27 09:19:37;;;;;;;2.33;2.13;;;17.50;99.90;;;;;;5011215;28;20555;-69
2023/07/27 09:22:03;;;;;;;3.33;2.87;;;17.50;99.90;;;;;;4991539;28;21093;-68
2023/07/27 09:24:35;;;;;;;2.50;2.30;;;17.50;99.90;;;;;;4993949;28;20529;-68
2023/07/27 09:27:02;;;;;;;2.23;2.03;;;17.50;99.90;;;;;;4996013;28;20451;-69
2023/07/27 09:29:28;;;;;;;2.67;2.47;;;17.40;99.90;;;;;;5007560;28;20566;-69
2023/07/27 09:31:58;;;;;;;2.87;2.67;;;17.40;99.90;;;;;;4993954;28;20522;-69
2023/07/27 09:34:28;;;;;;;2.60;2.40;;;17.50;99.90;;;;;;4990014;28;20593;-71
2023/07/27 09:37:07;;;;;;;2.50;2.30;;;17.50;99.90;;;;;;4996684;28;20463;-68
2023/07/27 09:39:42;;;;;;;3.03;2.73;;;17.50;99.90;;;;;;4993548;28;20487;-68
2023/07/27 09:42:10;;;;;;;3.43;3.13;;;17.60;99.90;;;;;;5012470;28;20475;-68
2023/07/27 09:44:49;;;;;;;3.40;2.87;;;17.60;99.90;;;;;;4994902;28;20472;-68
2023/07/27 09:47:20;;;;;;;4.20;3.10;;;17.60;99.90;;;;;;4996577;28;20951;-69
2023/07/27 09:49:49;;;;;;;3.70;3.40;;;17.60;99.90;;;;;;4994878;28;20498;-67
2023/07/27 09:52:17;;;;;;;5.50;3.20;;;17.60;99.90;;;;;;5011882;28;20483;-68
2023/07/27 09:54:47;;;;;;;4.37;3.87;;;17.60;99.90;;;;;;4998201;28;21264;-69
2023/07/27 09:57:12;;;;;;;3.57;3.27;;;17.60;99.90;;;;;;4994831;28;20574;-69
2023/07/27 09:59:38;;;;;;;4.13;3.63;;;17.70;99.90;;;;;;4992422;28;20464;-68
2023/07/27 10:02:04;;;;;;;9.30;3.97;;;17.70;99.90;;;;;;5016596;28;20224;-69
2023/07/27 10:04:30;;;;;;;4.67;4.20;;;17.70;99.90;;;;;;5017339;28;20328;-68
2023/07/27 10:06:56;;;;;;;4.77;4.37;;;17.70;99.90;;;;;;4999675;28;20924;-70
2023/07/27 10:09:22;;;;;;;3.50;3.20;;;17.70;99.90;;;;;;4997578;28;20681;-69
2023/07/27 10:11:59;;;;;;;3.67;3.37;;;17.70;99.90;;;;;;4998585;28;20322;-71
2023/07/27 10:14:27;;;;;;;3.50;3.20;;;17.70;99.90;;;;;;4998644;28;20573;-70
2023/07/27 10:17:02;;;;;;;3.93;3.50;;;17.70;99.90;;;;;;4997240;28;20480;-68
2023/07/27 10:19:44;;;;;;;4.83;3.70;;;17.70;99.90;;;;;;5012757;28;20523;-69
2023/07/27 10:22:14;;;;;;;3.27;2.90;;;17.80;99.90;;;;;;4998782;28;20822;-70
2023/07/27 10:24:53;;;;;;;3.40;3.10;;;17.80;99.90;;;;;;5000028;28;20470;-70
2023/07/27 10:27:20;;;;;;;2.83;2.63;;;17.80;99.90;;;;;;4999069;28;20470;-70
2023/07/27 10:29:54;;;;;;;3.03;2.83;;;17.80;99.90;;;;;;5015162;28;20463;-70
2023/07/27 10:32:20;;;;;;;3.80;3.50;;;17.80;99.90;;;;;;5016009;28;20560;-69
2023/07/27 10:34:50;;;;;;;4.07;3.50;;;17.80;99.90;;;;;;5003621;28;20853;-70
2023/07/27 10:37:16;;;;;;;4.40;3.90;;;17.80;99.90;;;;;;5000859;28;20594;-69
2023/07/27 10:39:44;;;;;;;3.93;3.27;;;17.80;99.90;;;;;;5001605;28;20462;-69
2023/07/27 10:42:14;;;;;;;3.30;2.97;;;17.80;99.90;;;;;;5003098;28;20229;-69
2023/07/27 10:44:43;;;;;;;4.43;4.03;;;17.90;99.90;;;;;;5002642;28;20988;-69
2023/07/27 10:47:29;;;;;;;5.93;4.00;;;17.90;99.90;;;;;;5018830;28;20489;-70
2023/07/27 10:49:56;;;;;;;3.50;3.20;;;17.90;99.90;;;;;;4996131;28;20464;-70
2023/07/27 10:52:26;;;;;;;3.33;3.03;;;17.90;99.90;;;;;;4999256;28;20479;-70
2023/07/27 10:54:54;;;;;;;3.60;3.30;;;18.00;99.90;;;;;;4998695;28;20956;-69
2023/07/27 10:57:21;;;;;;;3.30;3.07;;;18.00;99.90;;;;;;5015163;28;20475;-68
2023/07/27 10:59:48;;;;;;;2.80;2.60;;;18.00;99.90;;;;;;4995685;28;20556;-68
2023/07/27 11:02:17;;;;;;;3.73;3.43;;;18.00;99.90;;;;;;5000952;28;20479;-69
2023/07/27 11:04:44;;;;;;;2.97;2.70;;;18.10;99.90;;;;;;5000389;28;20472;-68
2023/07/27 11:07:11;;;;;;;3.77;2.90;;;18.10;99.90;;;;;;4998876;28;20459;-69
2023/07/27 11:09:37;;;;;;;4.07;3.30;;;18.10;99.90;;;;;;4982912;28;20549;-68
2023/07/27 11:12:04;;;;;;;5.70;5.20;;;18.10;99.90;;;;;;5017146;28;21218;-68
2023/07/27 11:14:30;;;;;;;3.47;3.17;;;18.10;99.90;;;;;;4999151;28;20533;-69
2023/07/27 11:16:56;;;;;;;3.90;3.60;;;18.20;99.90;;;;;;4997886;28;20571;-69
2023/07/27 11:19:24;;;;;;;4.07;3.67;;;18.20;99.90;;;;;;4994018;28;21124;-68
2023/07/27 11:21:51;;;;;;;3.90;3.50;;;18.20;99.90;;;;;;5000759;28;20556;-67
2023/07/27 11:24:18;;;;;;;3.30;3.07;;;18.20;99.90;;;;;;4998905;28;21250;-69
2023/07/27 11:26:44;;;;;;;3.33;3.03;;;18.20;99.90;;;;;;4999676;28;20590;-68
2023/07/27 11:29:10;;;;;;;3.10;2.80;;;18.20;99.90;;;;;;4996390;28;20469;-68
2023/07/27 11:31:36;;;;;;;3.30;3.00;;;18.20;99.90;;;;;;4997557;28;20479;-68
2023/07/27 11:34:03;;;;;;;3.57;2.70;;;18.20;99.90;;;;;;4999632;28;20317;-68
2023/07/27 11:36:33;;;;;;;3.33;3.03;;;18.20;99.90;;;;;;4996553;28;20230;-68
2023/07/27 11:39:00;;;;;;;3.20;2.90;;;18.20;99.90;;;;;;5015398;28;20571;-69
2023/07/27 11:41:29;;;;;;;3.37;3.10;;;18.20;99.90;;;;;;5015779;28;20489;-69
2023/07/27 11:43:56;;;;;;;2.70;2.50;;;18.20;99.90;;;;;;5014686;28;20514;-68
2023/07/27 11:46:24;;;;;;;4.07;2.97;;;18.20;99.90;;;;;;4996015;28;20470;-68
2023/07/27 11:48:50;;;;;;;2.60;2.40;;;18.20;99.90;;;;;;4997448;28;20468;-68
2023/07/27 11:51:16;;;;;;;2.90;2.60;;;18.30;99.90;;;;;;4997760;28;21210;-68
2023/07/27 11:53:45;;;;;;;2.70;2.50;;;18.30;99.90;;;;;;4998759;28;20252;-68
2023/07/27 11:56:11;;;;;;;3.37;2.60;;;18.30;99.90;;;;;;4999196;28;21063;-69
2023/07/27 11:58:37;;;;;;;2.50;2.30;;;18.30;99.90;;;;;;4999552;28;20498;-69
2023/07/27 12:01:03;;;;;;;5.80;2.63;;;18.40;99.90;;;;;;5012015;28;20530;-68
2023/07/27 12:03:34;;;;;;;3.03;2.83;;;18.40;99.90;;;;;;4998637;28;20475;-69
2023/07/27 12:06:02;;;;;;;2.67;2.40;;;18.40;99.90;;;;;;4996753;28;20545;-68
2023/07/27 12:08:29;;;;;;;2.57;2.37;;;18.40;99.90;;;;;;4998275;28;20517;-69
2023/07/27 12:10:59;;;;;;;2.00;1.90;;;18.40;99.90;;;;;;4997136;28;20479;-69
2023/07/27 12:13:26;;;;;;;2.70;2.50;;;18.40;99.90;;;;;;4998503;28;20476;-68
2023/07/27 12:15:59;;;;;;;2.30;2.10;;;18.50;99.90;;;;;;4998421;28;20505;-68
2023/07/27 12:18:29;;;;;;;2.40;2.20;;;18.50;99.90;;;;;;4999426;28;20593;-69
2023/07/27 12:20:55;;;;;;;3.03;2.83;;;18.50;99.90;;;;;;4997238;28;21518;-69
2023/07/27 12:23:22;;;;;;;2.70;2.50;;;18.50;99.90;;;;;;4999305;28;20507;-68
2023/07/27 12:25:49;;;;;;;2.33;2.13;;;18.50;99.90;;;;;;4998253;28;21075;-69
2023/07/27 12:28:15;;;;;;;2.97;2.77;;;18.50;99.90;;;;;;4982543;28;20460;-69
2023/07/27 12:30:40;;;;;;;2.57;2.37;;;18.50;99.90;;;;;;4961353;28;21214;-69
2023/07/27 12:33:06;;;;;;;2.80;2.57;;;18.50;99.90;;;;;;4964580;28;20255;-70
2023/07/27 12:35:32;;;;;;;2.97;2.73;;;18.50;99.90;;;;;;4964197;28;20237;-70
2023/07/27 12:37:59;;;;;;;2.40;2.20;;;18.50;99.90;;;;;;4962092;28;20363;-69
2023/07/27 12:40:25;;;;;;;2.73;2.53;;;18.50;99.90;;;;;;4977625;28;20455;-70
2023/07/27 12:42:51;;;;;;;3.07;2.70;;;18.50;99.90;;;;;;5001185;28;20517;-69
2023/07/27 12:45:19;;;;;;;2.40;2.20;;;18.50;99.90;;;;;;5001425;28;20833;-70
2023/07/27 12:47:48;;;;;;;2.30;2.10;;;18.50;99.90;;;;;;4996355;28;20221;-69
2023/07/27 12:50:15;;;;;;;2.20;2.00;;;18.50;99.90;;;;;;4998440;28;20472;-69